Time;durP1;ratioP1;P1;durP2;ratioP2;P2;SDS_P1;SDS_P2;PMS_P1;PMS_P2;Temp;Humidity;BMP_temperature;BMP_pressure;BME280_temperature;BME280_humidity;BME280_pressure;Samples;Min_cycle;Max_cycle;Signal;HPM_P1;HPM_P2
2021/05/24 00:01:49;;;;;;;1.33;1.23;;;;;;;;;;5071852;28;20414;-74
2021/05/24 00:04:15;;;;;;;1.10;0.90;;;;;;;;;;5071846;28;21081;-72
2021/05/24 00:06:41;;;;;;;1.00;0.67;;;;;;;;;;5071549;28;20438;-73
2021/05/24 00:09:07;;;;;;;4.73;0.90;;;;;;;;;;5071288;28;20466;-72
2021/05/24 00:11:33;;;;;;;0.83;0.53;;;;;;;;;;5071454;28;20457;-71
2021/05/24 00:13:59;;;;;;;3.17;1.53;;;;;;;;;;5071594;28;20381;-71
2021/05/24 00:16:25;;;;;;;2.97;2.00;;;;;;;;;;5053867;28;20410;-71
2021/05/24 00:18:52;;;;;;;1.20;1.10;;;;;;;;;;5053635;28;20439;-72
2021/05/24 00:21:22;;;;;;;0.90;0.70;;;;;;;;;;5052977;28;20420;-72
2021/05/24 00:23:48;;;;;;;0.70;0.60;;;;;;;;;;5071577;28;20904;-71
2021/05/24 00:26:14;;;;;;;1.00;0.60;;;;;;;;;;5071488;28;20412;-71
2021/05/24 00:28:41;;;;;;;1.00;0.90;;;;;;;;;;5071299;28;20454;-72
2021/05/24 00:31:07;;;;;;;1.57;0.73;;;;;;;;;;5070665;28;20980;-71
2021/05/24 00:33:33;;;;;;;1.10;0.90;;;;;;;;;;5082096;28;20742;-71
2021/05/24 00:35:59;;;;;;;4.87;0.97;;;;;;;;;;5091573;28;20408;-71
2021/05/24 00:38:25;;;;;;;1.00;0.60;;;;;;;;;;5091776;28;20428;-71
2021/05/24 00:40:51;;;;;;;1.63;1.53;;;;;;;;;;5072480;28;20879;-71
2021/05/24 00:43:17;;;;;;;2.60;1.90;;;;;;;;;;5091977;28;20404;-73
2021/05/24 00:45:43;;;;;;;1.30;1.10;;;;;;;;;;5073564;28;20407;-73
2021/05/24 00:48:09;;;;;;;0.70;0.50;;;;;;;;;;5073273;28;20817;-73
2021/05/24 00:50:36;;;;;;;0.83;0.60;;;;;;;;;;5090499;28;20828;-72
2021/05/24 00:53:02;;;;;;;1.03;0.83;;;;;;;;;;5090997;28;20911;-73
2021/05/24 00:55:28;;;;;;;0.70;0.50;;;;;;;;;;5091356;28;20400;-72
2021/05/24 00:57:54;;;;;;;3.33;0.63;;;;;;;;;;5091306;28;20384;-72
2021/05/24 01:00:27;;;;;;;0.70;0.40;;;;;;;;;;5076051;28;20402;-72
2021/05/24 01:02:56;;;;;;;1.30;1.20;;;;;;;;;;5070946;28;20398;-73
2021/05/24 01:05:22;;;;;;;1.47;1.37;;;;;;;;;;5071144;28;20405;-72
2021/05/24 01:07:48;;;;;;;0.80;0.67;;;;;;;;;;5070523;28;20469;-72
2021/05/24 01:10:14;;;;;;;1.40;0.83;;;;;;;;;;5051859;28;20947;-73
2021/05/24 01:12:41;;;;;;;1.10;0.73;;;;;;;;;;5070610;28;20489;-73
2021/05/24 01:15:07;;;;;;;13.10;1.43;;;;;;;;;;5070917;28;20398;-73
2021/05/24 01:17:33;;;;;;;1.07;0.90;;;;;;;;;;5070631;28;21233;-72
2021/05/24 01:19:59;;;;;;;1.43;0.80;;;;;;;;;;5070049;28;20394;-73
2021/05/24 01:22:25;;;;;;;1.80;0.83;;;;;;;;;;5070370;28;20406;-73
2021/05/24 01:24:50;;;;;;;1.80;1.60;;;;;;;;;;5070864;28;20416;-74
2021/05/24 01:27:17;;;;;;;0.90;0.70;;;;;;;;;;5070719;28;20402;-72
2021/05/24 01:29:43;;;;;;;1.53;1.13;;;;;;;;;;5069834;28;20410;-72
2021/05/24 01:32:10;;;;;;;0.80;0.50;;;;;;;;;;5070452;28;20441;-72
2021/05/24 01:34:36;;;;;;;1.63;0.80;;;;;;;;;;5089706;28;20415;-73
2021/05/24 01:37:05;;;;;;;1.23;0.67;;;;;;;;;;5091006;28;20890;-74
2021/05/24 01:39:31;;;;;;;2.10;1.47;;;;;;;;;;5072345;28;20401;-73
2021/05/24 01:41:58;;;;;;;2.27;1.40;;;;;;;;;;5090691;28;20778;-72
2021/05/24 01:44:33;;;;;;;1.40;1.23;;;;;;;;;;5090572;28;21067;-72
2021/05/24 01:46:59;;;;;;;1.67;1.57;;;;;;;;;;5090640;28;20407;-71
2021/05/24 01:49:26;;;;;;;0.90;0.80;;;;;;;;;;5089671;28;21063;-72
2021/05/24 01:51:52;;;;;;;1.00;0.90;;;;;;;;;;5090582;28;20456;-71
2021/05/24 01:54:18;;;;;;;4.80;1.17;;;;;;;;;;5090362;28;20784;-73
2021/05/24 01:56:45;;;;;;;1.03;0.60;;;;;;;;;;5090381;28;20397;-73
2021/05/24 01:59:11;;;;;;;1.50;0.90;;;;;;;;;;5085056;28;20421;-72
2021/05/24 02:01:37;;;;;;;1.00;0.80;;;;;;;;;;5070037;28;20467;-73
2021/05/24 02:04:03;;;;;;;1.00;0.80;;;;;;;;;;5070275;28;20828;-73
2021/05/24 02:06:29;;;;;;;0.80;0.60;;;;;;;;;;5070067;28;20483;-72
2021/05/24 02:08:55;;;;;;;0.80;0.77;;;;;;;;;;5070050;28;20441;-73
2021/05/24 02:11:21;;;;;;;0.80;0.60;;;;;;;;;;5069303;28;21008;-72
2021/05/24 02:13:47;;;;;;;1.00;0.67;;;;;;;;;;5070183;28;20898;-71
2021/05/24 02:16:13;;;;;;;1.07;0.97;;;;;;;;;;5070086;28;20405;-71
2021/05/24 02:18:39;;;;;;;0.80;0.63;;;;;;;;;;5069850;28;20422;-72
2021/05/24 02:21:07;;;;;;;0.70;0.50;;;;;;;;;;5069356;28;20486;-71
2021/05/24 02:23:33;;;;;;;0.90;0.60;;;;;;;;;;5071596;28;20410;-72
2021/05/24 02:25:59;;;;;;;1.70;0.90;;;;;;;;;;5073835;28;20409;-72
2021/05/24 02:28:26;;;;;;;0.80;0.60;;;;;;;;;;5073556;28;20432;-71
2021/05/24 02:30:52;;;;;;;0.90;0.77;;;;;;;;;;5072604;28;20412;-73
2021/05/24 02:33:18;;;;;;;1.00;0.70;;;;;;;;;;5081868;28;20412;-73
2021/05/24 02:35:44;;;;;;;1.00;0.70;;;;;;;;;;5093944;28;20377;-73
2021/05/24 02:38:11;;;;;;;1.73;0.77;;;;;;;;;;5093543;28;20409;-72
2021/05/24 02:40:37;;;;;;;2.10;1.10;;;;;;;;;;5092750;28;20397;-71
2021/05/24 02:43:03;;;;;;;0.80;0.70;;;;;;;;;;5093586;28;20401;-72
2021/05/24 02:45:29;;;;;;;0.90;0.77;;;;;;;;;;5093545;28;20368;-71
2021/05/24 02:47:57;;;;;;;2.10;0.87;;;;;;;;;;5110675;22;20614;-72
2021/05/24 02:50:24;;;;;;;1.00;0.90;;;;;;;;;;5065305;28;20505;-71
2021/05/24 02:52:50;;;;;;;1.50;1.27;;;;;;;;;;5072645;28;20446;-71
2021/05/24 02:55:17;;;;;;;1.20;1.00;;;;;;;;;;5072873;28;20399;-70
2021/05/24 02:57:43;;;;;;;2.90;0.60;;;;;;;;;;5071573;28;20384;-70
2021/05/24 03:00:09;;;;;;;0.80;0.60;;;;;;;;;;5059548;28;20802;-71
2021/05/24 03:02:44;;;;;;;1.00;0.90;;;;;;;;;;5053374;28;20504;-70
2021/05/24 03:05:11;;;;;;;1.00;0.73;;;;;;;;;;5068714;28;20428;-69
2021/05/24 03:07:37;;;;;;;1.37;1.00;;;;;;;;;;5072113;28;20872;-71
2021/05/24 03:10:03;;;;;;;0.90;0.50;;;;;;;;;;5071982;28;20409;-70
2021/05/24 03:12:29;;;;;;;0.70;0.60;;;;;;;;;;5072749;28;20974;-70
2021/05/24 03:14:55;;;;;;;1.83;0.80;;;;;;;;;;5072639;28;20430;-71
2021/05/24 03:17:20;;;;;;;1.43;0.70;;;;;;;;;;5072744;28;20409;-70
2021/05/24 03:19:46;;;;;;;1.90;1.10;;;;;;;;;;5071909;28;20396;-70
2021/05/24 03:22:12;;;;;;;1.10;0.83;;;;;;;;;;5054584;28;20438;-70
2021/05/24 03:24:39;;;;;;;3.57;1.27;;;;;;;;;;5072660;28;20415;-70
2021/05/24 03:27:05;;;;;;;1.97;0.80;;;;;;;;;;5072596;28;20402;-71
2021/05/24 03:29:31;;;;;;;1.33;0.60;;;;;;;;;;5062016;28;20983;-70
2021/05/24 03:31:57;;;;;;;0.83;0.60;;;;;;;;;;5053776;28;20445;-70
2021/05/24 03:34:23;;;;;;;1.93;1.00;;;;;;;;;;5086559;28;20769;-69
2021/05/24 03:36:49;;;;;;;1.23;0.70;;;;;;;;;;5092757;28;20380;-70
2021/05/24 03:39:15;;;;;;;0.97;0.80;;;;;;;;;;5091598;28;20453;-69
2021/05/24 03:41:41;;;;;;;1.20;1.10;;;;;;;;;;5092396;28;20461;-71
2021/05/24 03:44:07;;;;;;;1.00;0.70;;;;;;;;;;5092318;28;20383;-71
2021/05/24 03:46:33;;;;;;;0.77;0.57;;;;;;;;;;5092542;28;20372;-72
2021/05/24 03:49:00;;;;;;;0.80;0.70;;;;;;;;;;5091910;28;20536;-70
2021/05/24 03:51:26;;;;;;;1.23;0.70;;;;;;;;;;5091284;28;20609;-72
2021/05/24 03:53:53;;;;;;;1.00;0.60;;;;;;;;;;5092440;28;20904;-71
2021/05/24 03:56:19;;;;;;;0.80;0.60;;;;;;;;;;5087624;28;20391;-71
2021/05/24 03:58:45;;;;;;;1.10;1.00;;;;;;;;;;5070635;28;20493;-70
2021/05/24 04:01:11;;;;;;;2.17;1.13;;;;;;;;;;5051003;28;20383;-70
2021/05/24 04:03:37;;;;;;;0.93;0.53;;;;;;;;;;5056502;28;20389;-69
2021/05/24 04:06:04;;;;;;;0.80;0.60;;;;;;;;;;5070160;28;20421;-70
2021/05/24 04:08:35;;;;;;;1.10;0.90;;;;;;;;;;5063487;28;20836;-70
2021/05/24 04:11:02;;;;;;;1.10;0.60;;;;;;;;;;5068402;28;20428;-71
2021/05/24 04:13:29;;;;;;;1.17;0.80;;;;;;;;;;5071306;28;20455;-70
2021/05/24 04:15:57;;;;;;;1.20;0.77;;;;;;;;;;5071097;28;20377;-69
2021/05/24 04:18:25;;;;;;;0.70;0.50;;;;;;;;;;5070918;28;20426;-71
2021/05/24 04:20:51;;;;;;;0.70;0.40;;;;;;;;;;5070742;28;20369;-70
2021/05/24 04:23:18;;;;;;;1.20;0.93;;;;;;;;;;5071194;28;20402;-71
2021/05/24 04:25:44;;;;;;;0.80;0.70;;;;;;;;;;5071460;28;20376;-70
2021/05/24 04:28:10;;;;;;;2.03;1.27;;;;;;;;;;5070272;28;20418;-71
2021/05/24 04:30:36;;;;;;;2.33;0.90;;;;;;;;;;5032806;28;20906;-70
2021/05/24 04:33:02;;;;;;;1.67;0.80;;;;;;;;;;5045924;28;20455;-70
2021/05/24 04:35:28;;;;;;;0.80;0.60;;;;;;;;;;5091652;28;20405;-70
2021/05/24 04:37:55;;;;;;;0.83;0.70;;;;;;;;;;5091661;28;20494;-70
2021/05/24 04:40:21;;;;;;;0.80;0.60;;;;;;;;;;5090800;28;20769;-71
2021/05/24 04:42:47;;;;;;;0.97;0.80;;;;;;;;;;5091472;28;20461;-69
2021/05/24 04:45:13;;;;;;;0.80;0.50;;;;;;;;;;5091413;28;20409;-69
2021/05/24 04:47:40;;;;;;;2.00;0.97;;;;;;;;;;5091061;28;20393;-69
2021/05/24 04:50:07;;;;;;;0.80;0.53;;;;;;;;;;5090758;28;20451;-69
2021/05/24 04:52:33;;;;;;;0.80;0.70;;;;;;;;;;5091357;28;20519;-70
2021/05/24 04:54:58;;;;;;;0.70;0.50;;;;;;;;;;5064425;28;20407;-69
2021/05/24 04:57:24;;;;;;;0.80;0.63;;;;;;;;;;5041394;28;20486;-69
2021/05/24 04:59:50;;;;;;;0.90;0.50;;;;;;;;;;5039472;28;20465;-69
2021/05/24 05:02:16;;;;;;;2.87;2.53;;;;;;;;;;5044260;28;20404;-68
2021/05/24 05:04:42;;;;;;;1.77;1.53;;;;;;;;;;5060168;28;20874;-70
2021/05/24 05:07:08;;;;;;;1.07;0.60;;;;;;;;;;5061219;28;20470;-69
2021/05/24 05:09:34;;;;;;;0.70;0.50;;;;;;;;;;5059390;28;20470;-70
2021/05/24 05:12:00;;;;;;;1.90;0.77;;;;;;;;;;5057894;28;20477;-69
2021/05/24 05:14:26;;;;;;;1.50;1.40;;;;;;;;;;5066794;28;20455;-69
2021/05/24 05:16:53;;;;;;;1.00;0.70;;;;;;;;;;5069413;28;20745;-69
2021/05/24 05:19:19;;;;;;;1.30;0.87;;;;;;;;;;5069161;28;20430;-69
2021/05/24 05:21:48;;;;;;;1.00;0.63;;;;;;;;;;5070185;28;20447;-69
2021/05/24 05:24:15;;;;;;;0.77;0.50;;;;;;;;;;5070039;28;20436;-69
2021/05/24 05:26:41;;;;;;;0.70;0.50;;;;;;;;;;5067388;28;20405;-69
2021/05/24 05:29:07;;;;;;;0.80;0.50;;;;;;;;;;5067895;28;20510;-69
2021/05/24 05:31:32;;;;;;;0.70;0.50;;;;;;;;;;5069657;28;20536;-68
2021/05/24 05:33:59;;;;;;;0.80;0.70;;;;;;;;;;5070662;28;20415;-69
2021/05/24 05:36:26;;;;;;;0.70;0.40;;;;;;;;;;5069853;28;20429;-67
2021/05/24 05:38:52;;;;;;;1.00;0.50;;;;;;;;;;5069153;28;20561;-68
2021/05/24 05:41:18;;;;;;;1.10;0.80;;;;;;;;;;5039275;28;20935;-68
2021/05/24 05:45:02;;;;;;;0.80;0.80;;;;;;;;;;5056804;27;20522;-69
2021/05/24 05:47:28;;;;;;;0.80;0.50;;;;;;;;;;5053099;28;20841;-69
2021/05/24 05:49:54;;;;;;;0.70;0.50;;;;;;;;;;5070748;28;20456;-70
2021/05/24 05:52:20;;;;;;;1.17;1.03;;;;;;;;;;5073759;28;20398;-70
2021/05/24 05:54:46;;;;;;;0.70;0.50;;;;;;;;;;5076249;28;20409;-69
2021/05/24 05:57:13;;;;;;;0.80;0.70;;;;;;;;;;5077031;28;20403;-70
2021/05/24 05:59:39;;;;;;;0.97;0.77;;;;;;;;;;5077696;28;20402;-70
2021/05/24 06:02:05;;;;;;;0.70;0.40;;;;;;;;;;5077431;28;20586;-69
2021/05/24 06:04:31;;;;;;;0.70;0.50;;;;;;;;;;5076808;28;20429;-70
2021/05/24 06:06:57;;;;;;;0.70;0.50;;;;;;;;;;5078380;28;20465;-70
2021/05/24 06:09:23;;;;;;;0.80;0.60;;;;;;;;;;5075915;28;20531;-70
2021/05/24 06:11:51;;;;;;;0.73;0.47;;;;;;;;;;5078617;28;20400;-70
2021/05/24 06:14:17;;;;;;;0.70;0.40;;;;;;;;;;5077692;28;20385;-70
2021/05/24 06:16:43;;;;;;;1.00;0.70;;;;;;;;;;5077677;28;20394;-70
2021/05/24 06:19:09;;;;;;;3.50;0.97;;;;;;;;;;5075451;28;21932;-69
2021/05/24 06:21:35;;;;;;;1.00;0.60;;;;;;;;;;5078222;28;20448;-70
2021/05/24 06:24:02;;;;;;;0.70;0.50;;;;;;;;;;5078695;28;20433;-73
2021/05/24 06:26:28;;;;;;;0.70;0.50;;;;;;;;;;5079091;28;20399;-69
2021/05/24 06:28:54;;;;;;;0.70;0.50;;;;;;;;;;5076948;28;20389;-69
2021/05/24 06:31:20;;;;;;;0.83;0.63;;;;;;;;;;5077344;28;20394;-69
2021/05/24 06:33:46;;;;;;;0.77;0.53;;;;;;;;;;5077532;28;20824;-69
2021/05/24 06:36:11;;;;;;;0.70;0.70;;;;;;;;;;5078495;28;20403;-70
2021/05/24 06:38:37;;;;;;;1.40;0.70;;;;;;;;;;5076135;28;20512;-69
2021/05/24 06:41:03;;;;;;;0.70;0.50;;;;;;;;;;5066227;28;20456;-70
2021/05/24 06:43:29;;;;;;;0.80;0.60;;;;;;;;;;5072349;28;20430;-68
2021/05/24 06:45:55;;;;;;;0.80;0.60;;;;;;;;;;5071953;28;20423;-70
2021/05/24 06:48:21;;;;;;;1.83;0.80;;;;;;;;;;5066870;28;20923;-71
2021/05/24 06:50:47;;;;;;;0.80;0.50;;;;;;;;;;5063356;28;20385;-70
2021/05/24 06:53:13;;;;;;;0.70;0.50;;;;;;;;;;5067100;28;20417;-70
2021/05/24 06:55:39;;;;;;;0.70;0.50;;;;;;;;;;5057433;28;20407;-70
2021/05/24 06:58:05;;;;;;;0.70;0.50;;;;;;;;;;5053821;28;20915;-69
2021/05/24 07:00:31;;;;;;;0.70;0.53;;;;;;;;;;5052614;28;20381;-70
2021/05/24 07:02:57;;;;;;;0.87;0.50;;;;;;;;;;5053113;28;20462;-70
2021/05/24 07:05:23;;;;;;;0.80;0.50;;;;;;;;;;5052455;28;20395;-72
2021/05/24 07:07:49;;;;;;;0.70;0.50;;;;;;;;;;5050921;28;21000;-72
2021/05/24 07:10:15;;;;;;;0.80;0.60;;;;;;;;;;5052039;28;20485;-71
2021/05/24 07:12:41;;;;;;;0.80;0.60;;;;;;;;;;5051931;28;20411;-70
2021/05/24 07:15:08;;;;;;;0.80;0.50;;;;;;;;;;5058411;28;20901;-72
2021/05/24 07:17:34;;;;;;;1.20;0.77;;;;;;;;;;5070094;28;20473;-74
2021/05/24 07:20:00;;;;;;;4.27;0.80;;;;;;;;;;5052820;28;20761;-73
2021/05/24 07:22:26;;;;;;;1.23;0.67;;;;;;;;;;5053863;28;20403;-73
2021/05/24 07:24:53;;;;;;;0.80;0.67;;;;;;;;;;5053543;28;20447;-72
2021/05/24 07:27:19;;;;;;;0.80;0.50;;;;;;;;;;5053528;28;20461;-72
2021/05/24 07:29:45;;;;;;;1.00;0.70;;;;;;;;;;5052249;28;20453;-72
2021/05/24 07:32:11;;;;;;;0.80;0.60;;;;;;;;;;5053320;28;20407;-72
2021/05/24 07:34:38;;;;;;;0.80;0.57;;;;;;;;;;5053089;28;20549;-71
2021/05/24 07:37:04;;;;;;;1.27;0.70;;;;;;;;;;5051783;28;20378;-72
2021/05/24 07:39:30;;;;;;;0.80;0.60;;;;;;;;;;5051735;28;20417;-71
2021/05/24 07:41:59;;;;;;;1.30;1.00;;;;;;;;;;5052234;28;20468;-72
2021/05/24 07:44:25;;;;;;;0.80;0.60;;;;;;;;;;5051605;28;20429;-72
2021/05/24 07:46:51;;;;;;;0.70;0.50;;;;;;;;;;5051730;28;20879;-73
2021/05/24 07:49:18;;;;;;;0.70;0.60;;;;;;;;;;5050844;28;20464;-75
2021/05/24 07:51:44;;;;;;;0.70;0.50;;;;;;;;;;5051801;28;20452;-76
2021/05/24 07:54:10;;;;;;;0.80;0.60;;;;;;;;;;5051260;28;20953;-76
2021/05/24 07:56:36;;;;;;;0.70;0.50;;;;;;;;;;5052230;28;20412;-74
2021/05/24 07:59:02;;;;;;;0.80;0.50;;;;;;;;;;5051817;28;20401;-74
2021/05/24 08:01:28;;;;;;;0.70;0.50;;;;;;;;;;5051661;28;20505;-73
2021/05/24 08:03:54;;;;;;;0.70;0.50;;;;;;;;;;5052514;28;20841;-73
2021/05/24 08:06:20;;;;;;;0.70;0.50;;;;;;;;;;5057762;28;21001;-71
2021/05/24 08:08:46;;;;;;;0.73;0.53;;;;;;;;;;5063579;28;20494;-72
2021/05/24 08:11:14;;;;;;;0.70;0.50;;;;;;;;;;5059971;28;20374;-73
2021/05/24 08:13:40;;;;;;;4.10;0.60;;;;;;;;;;5062067;28;20485;-69
2021/05/24 08:16:06;;;;;;;1.10;0.60;;;;;;;;;;5061138;28;20468;-73
2021/05/24 08:18:32;;;;;;;0.70;0.50;;;;;;;;;;5060471;28;20423;-71
2021/05/24 08:20:58;;;;;;;0.70;0.50;;;;;;;;;;5061451;28;21086;-73
2021/05/24 08:23:24;;;;;;;5.70;0.70;;;;;;;;;;5063331;28;20460;-71
2021/05/24 08:25:50;;;;;;;0.70;0.50;;;;;;;;;;5060434;28;20501;-74
2021/05/24 08:28:17;;;;;;;0.70;0.53;;;;;;;;;;5062324;28;20530;-73
2021/05/24 08:30:43;;;;;;;0.80;0.60;;;;;;;;;;5051349;28;20388;-71
2021/05/24 08:33:09;;;;;;;0.70;0.53;;;;;;;;;;5051603;28;20434;-73
2021/05/24 08:35:35;;;;;;;0.70;0.50;;;;;;;;;;5051337;28;20460;-71
2021/05/24 08:38:01;;;;;;;0.87;0.77;;;;;;;;;;5050044;28;20877;-72
2021/05/24 08:40:27;;;;;;;0.73;0.50;;;;;;;;;;5049355;28;20434;-73
2021/05/24 08:42:55;;;;;;;0.70;0.50;;;;;;;;;;5056257;28;20468;-74
2021/05/24 08:45:21;;;;;;;1.93;0.60;;;;;;;;;;5050846;28;20404;-73
2021/05/24 08:50:30;;;;;;;0.70;0.50;;;;;;;;;;5047166;28;20437;-70
2021/05/24 08:52:56;;;;;;;0.70;0.50;;;;;;;;;;5052591;28;20960;-69
2021/05/24 08:55:22;;;;;;;0.80;0.57;;;;;;;;;;5051585;28;20403;-69
2021/05/24 08:57:48;;;;;;;10.73;1.70;;;;;;;;;;5048210;28;20420;-69
2021/05/24 09:00:15;;;;;;;0.80;0.50;;;;;;;;;;5049517;28;20902;-68
2021/05/24 09:02:46;;;;;;;0.70;0.50;;;;;;;;;;5050640;28;20902;-68
2021/05/24 09:05:12;;;;;;;0.80;0.50;;;;;;;;;;5050869;28;20403;-69
2021/05/24 09:07:52;;;;;;;0.70;0.50;;;;;;;;;;5050569;28;20411;-69
2021/05/24 09:10:18;;;;;;;0.70;0.60;;;;;;;;;;5049524;28;20423;-69
2021/05/24 09:12:44;;;;;;;0.70;0.50;;;;;;;;;;5050520;28;20456;-69
2021/05/24 09:15:13;;;;;;;0.70;0.50;;;;;;;;;;5050049;28;20381;-70
2021/05/24 09:17:46;;;;;;;0.70;0.50;;;;;;;;;;5049919;28;20382;-69
2021/05/24 09:20:16;;;;;;;0.70;0.40;;;;;;;;;;5049693;28;20986;-69
2021/05/24 09:22:42;;;;;;;0.90;0.73;;;;;;;;;;5050303;28;20414;-69
2021/05/24 09:25:09;;;;;;;0.70;0.50;;;;;;;;;;5050249;28;20415;-70
2021/05/24 09:27:37;;;;;;;1.67;0.70;;;;;;;;;;5050731;28;20918;-69
2021/05/24 09:30:04;;;;;;;0.70;0.40;;;;;;;;;;5050213;28;20437;-70
2021/05/24 09:32:32;;;;;;;0.80;0.60;;;;;;;;;;5051286;28;20488;-69
2021/05/24 09:35:02;;;;;;;0.93;0.60;;;;;;;;;;5051035;28;20407;-70
2021/05/24 09:37:30;;;;;;;0.70;0.50;;;;;;;;;;5050019;28;20942;-70
2021/05/24 09:39:56;;;;;;;0.70;0.50;;;;;;;;;;5049347;28;20430;-69
2021/05/24 09:42:22;;;;;;;0.70;0.50;;;;;;;;;;5050564;28;21025;-70
2021/05/24 09:44:53;;;;;;;0.80;0.50;;;;;;;;;;5050618;28;20480;-70
2021/05/24 09:47:32;;;;;;;0.80;0.60;;;;;;;;;;5033161;28;20407;-69
2021/05/24 09:50:06;;;;;;;1.43;1.33;;;;;;;;;;5049005;28;20450;-69
2021/05/24 09:52:36;;;;;;;0.80;0.60;;;;;;;;;;5050072;28;20398;-69
2021/05/24 09:55:14;;;;;;;0.70;0.50;;;;;;;;;;5032397;28;20431;-68
2021/05/24 09:58:00;;;;;;;1.33;0.53;;;;;;;;;;5048248;28;20958;-69
2021/05/24 10:00:38;;;;;;;3.77;2.30;;;;;;;;;;5049130;28;20464;-69
2021/05/24 10:03:06;;;;;;;2.23;1.27;;;;;;;;;;5031359;28;20453;-69
2021/05/24 10:05:38;;;;;;;0.80;0.50;;;;;;;;;;5031590;28;20786;-69
2021/05/24 10:08:05;;;;;;;0.70;0.50;;;;;;;;;;5029878;28;20432;-68
2021/05/24 10:10:31;;;;;;;1.53;0.50;;;;;;;;;;5028989;28;20397;-68
2021/05/24 10:12:58;;;;;;;3.00;0.70;;;;;;;;;;5029712;28;20379;-68
2021/05/24 10:15:24;;;;;;;0.70;0.50;;;;;;;;;;5029763;28;20774;-69
2021/05/24 10:17:57;;;;;;;0.70;0.40;;;;;;;;;;5029793;28;20400;-69
2021/05/24 10:20:23;;;;;;;2.40;0.63;;;;;;;;;;5028783;28;20889;-68
2021/05/24 10:22:49;;;;;;;0.70;0.50;;;;;;;;;;5029659;28;20479;-68
2021/05/24 10:25:16;;;;;;;0.77;0.47;;;;;;;;;;5029704;28;20476;-68
2021/05/24 10:27:42;;;;;;;0.70;0.50;;;;;;;;;;5029881;28;20400;-68
2021/05/24 10:30:09;;;;;;;1.00;0.53;;;;;;;;;;5046904;28;20458;-69
2021/05/24 10:32:35;;;;;;;0.80;0.50;;;;;;;;;;5053858;28;20403;-69
2021/05/24 10:35:01;;;;;;;1.17;0.70;;;;;;;;;;5053987;28;20403;-69
2021/05/24 10:37:27;;;;;;;0.87;0.50;;;;;;;;;;5053377;28;20413;-68
2021/05/24 10:40:04;;;;;;;1.90;0.70;;;;;;;;;;5053190;28;20435;-68
2021/05/24 10:42:42;;;;;;;0.80;0.60;;;;;;;;;;5053839;28;20413;-69
2021/05/24 10:45:16;;;;;;;0.80;0.50;;;;;;;;;;5053666;28;20454;-69
2021/05/24 10:47:52;;;;;;;2.00;0.60;;;;;;;;;;5053723;28;20438;-69
2021/05/24 10:50:19;;;;;;;0.70;0.50;;;;;;;;;;5052675;28;20442;-69
2021/05/24 10:52:54;;;;;;;0.90;0.70;;;;;;;;;;5036284;28;20419;-69
2021/05/24 10:55:26;;;;;;;1.03;0.50;;;;;;;;;;5052778;28;20405;-69
2021/05/24 10:57:56;;;;;;;0.70;0.47;;;;;;;;;;5052411;28;20407;-69
2021/05/24 11:00:22;;;;;;;0.80;0.50;;;;;;;;;;5052077;28;20431;-69
2021/05/24 11:02:53;;;;;;;0.70;0.40;;;;;;;;;;5052583;28;20490;-69
2021/05/24 11:05:29;;;;;;;0.70;0.40;;;;;;;;;;5052890;28;20377;-69
2021/05/24 11:07:56;;;;;;;0.80;0.50;;;;;;;;;;5050369;28;20921;-69
2021/05/24 11:10:23;;;;;;;0.70;0.50;;;;;;;;;;5051978;28;20569;-69
2021/05/24 11:12:57;;;;;;;0.80;0.50;;;;;;;;;;5051705;28;20411;-69
2021/05/24 11:15:29;;;;;;;0.80;0.60;;;;;;;;;;5053317;28;20893;-69
2021/05/24 11:18:02;;;;;;;2.20;0.60;;;;;;;;;;5053352;28;20399;-69
2021/05/24 11:20:34;;;;;;;0.70;0.40;;;;;;;;;;5052295;28;20932;-68
2021/05/24 11:23:24;;;;;;;4.53;0.70;;;;;;;;;;5051941;28;20411;-69
2021/05/24 11:25:59;;;;;;;0.70;0.50;;;;;;;;;;5053171;28;20419;-69
2021/05/24 11:28:38;;;;;;;0.80;0.50;;;;;;;;;;5053030;28;20389;-68
2021/05/24 11:31:21;;;;;;;0.70;0.40;;;;;;;;;;5052096;28;20430;-70
2021/05/24 11:33:48;;;;;;;1.63;1.53;;;;;;;;;;5052920;28;21104;-68
2021/05/24 11:36:15;;;;;;;1.20;0.60;;;;;;;;;;5052745;28;20480;-68
2021/05/24 11:39:02;;;;;;;2.80;1.00;;;;;;;;;;5052806;28;20423;-69
2021/05/24 11:41:30;;;;;;;2.90;0.77;;;;;;;;;;5051854;28;20969;-69
2021/05/24 11:43:57;;;;;;;0.70;0.40;;;;;;;;;;5052328;28;20465;-70
2021/05/24 11:46:23;;;;;;;0.80;0.47;;;;;;;;;;5035293;28;20411;-69
2021/05/24 11:48:50;;;;;;;1.20;0.60;;;;;;;;;;5052683;28;20973;-69
2021/05/24 11:51:17;;;;;;;0.70;0.47;;;;;;;;;;5051966;28;20398;-69
2021/05/24 11:54:01;;;;;;;0.80;0.50;;;;;;;;;;5052771;28;20403;-68
2021/05/24 11:56:47;;;;;;;0.70;0.40;;;;;;;;;;5053058;28;20758;-69
2021/05/24 11:59:14;;;;;;;0.80;0.70;;;;;;;;;;5051733;28;20423;-69
2021/05/24 12:01:42;;;;;;;0.70;0.50;;;;;;;;;;5052022;28;20414;-68
2021/05/24 12:04:09;;;;;;;0.70;0.50;;;;;;;;;;5051725;28;20446;-64
2021/05/24 12:06:42;;;;;;;0.70;0.50;;;;;;;;;;5049762;28;20411;-69
2021/05/24 12:09:08;;;;;;;0.70;0.40;;;;;;;;;;5050488;28;20418;-68
2021/05/24 12:11:34;;;;;;;0.70;0.50;;;;;;;;;;5050468;28;20415;-69
2021/05/24 12:14:05;;;;;;;0.97;0.47;;;;;;;;;;5050885;28;20407;-68
2021/05/24 12:16:32;;;;;;;1.13;0.60;;;;;;;;;;5049700;28;20410;-69
2021/05/24 12:19:00;;;;;;;0.70;0.40;;;;;;;;;;5051574;28;20431;-69
2021/05/24 12:21:44;;;;;;;0.70;0.40;;;;;;;;;;5051334;28;20395;-69
2021/05/24 12:24:10;;;;;;;0.80;0.50;;;;;;;;;;5049531;28;20474;-68
2021/05/24 12:26:38;;;;;;;0.70;0.50;;;;;;;;;;5051703;28;20399;-68
2021/05/24 12:29:05;;;;;;;0.80;0.60;;;;;;;;;;5051091;28;20531;-69
2021/05/24 12:31:31;;;;;;;0.70;0.40;;;;;;;;;;5048405;28;20399;-71
2021/05/24 12:33:58;;;;;;;0.70;0.50;;;;;;;;;;5051700;28;20411;-69
2021/05/24 12:36:33;;;;;;;0.70;0.40;;;;;;;;;;5051804;28;21439;-69
2021/05/24 12:39:04;;;;;;;0.70;0.50;;;;;;;;;;5049520;28;20528;-69
2021/05/24 12:41:31;;;;;;;1.20;0.63;;;;;;;;;;5050788;28;20406;-70
2021/05/24 12:43:58;;;;;;;0.70;0.50;;;;;;;;;;5051276;28;20429;-69
2021/05/24 12:46:24;;;;;;;2.70;0.63;;;;;;;;;;5050495;28;20510;-69
2021/05/24 12:48:52;;;;;;;2.07;0.87;;;;;;;;;;5051049;28;20413;-69
2021/05/24 12:51:20;;;;;;;1.07;0.60;;;;;;;;;;5050740;28;20410;-70
2021/05/24 12:53:52;;;;;;;0.90;0.70;;;;;;;;;;5050858;28;20801;-69
2021/05/24 12:56:19;;;;;;;2.77;0.80;;;;;;;;;;5051246;28;20388;-69
2021/05/24 12:58:45;;;;;;;1.07;0.60;;;;;;;;;;5050740;28;20427;-69
2021/05/24 13:01:11;;;;;;;0.70;0.50;;;;;;;;;;5050513;28;20739;-69
2021/05/24 13:03:49;;;;;;;0.70;0.40;;;;;;;;;;5051585;28;20451;-69
2021/05/24 13:06:16;;;;;;;0.70;0.40;;;;;;;;;;5051281;28;20501;-69
2021/05/24 13:08:48;;;;;;;2.97;0.80;;;;;;;;;;5050694;28;20785;-70
2021/05/24 13:11:15;;;;;;;0.70;0.50;;;;;;;;;;5047731;28;20957;-70
2021/05/24 13:13:41;;;;;;;0.80;0.50;;;;;;;;;;5051043;28;20468;-70
2021/05/24 13:16:20;;;;;;;1.57;0.97;;;;;;;;;;5050755;28;20403;-69
2021/05/24 13:22:09;;;;;;;0.70;0.40;;;;;;;;;;5051325;28;20448;-70
2021/05/24 13:24:59;;;;;;;0.70;0.50;;;;;;;;;;5047850;28;20446;-68
2021/05/24 13:30:33;;;;;;;0.80;0.70;;;;;;;;;;5047823;28;20901;-68
2021/05/24 13:32:59;;;;;;;0.70;0.50;;;;;;;;;;5050233;28;20430;-69
2021/05/24 13:35:25;;;;;;;0.83;0.67;;;;;;;;;;5049940;28;20394;-69
2021/05/24 13:37:52;;;;;;;0.80;0.50;;;;;;;;;;5049988;28;20744;-69
2021/05/24 13:40:18;;;;;;;4.40;0.53;;;;;;;;;;5048817;28;20419;-68
2021/05/24 13:42:45;;;;;;;1.10;0.73;;;;;;;;;;5050606;28;20394;-69
2021/05/24 13:45:12;;;;;;;0.70;0.50;;;;;;;;;;5050512;28;20503;-69
2021/05/24 13:47:38;;;;;;;2.33;0.57;;;;;;;;;;5050802;28;20400;-69
2021/05/24 13:50:04;;;;;;;0.80;0.50;;;;;;;;;;5049950;28;20430;-70
2021/05/24 13:52:31;;;;;;;0.80;0.50;;;;;;;;;;5050001;28;20504;-68
2021/05/24 13:54:56;;;;;;;0.70;0.50;;;;;;;;;;5049327;28;20414;-70
2021/05/24 13:57:22;;;;;;;1.20;0.73;;;;;;;;;;5049436;28;20759;-69
2021/05/24 13:59:48;;;;;;;0.70;0.50;;;;;;;;;;5048701;28;20575;-68
2021/05/24 14:02:14;;;;;;;1.23;0.63;;;;;;;;;;5049626;28;20410;-69
2021/05/24 14:04:40;;;;;;;2.10;0.93;;;;;;;;;;5048719;28;20465;-68
2021/05/24 14:07:06;;;;;;;0.70;0.40;;;;;;;;;;5053753;28;20411;-68
2021/05/24 14:09:32;;;;;;;1.10;0.70;;;;;;;;;;5050844;28;20526;-68
2021/05/24 14:11:58;;;;;;;0.80;0.60;;;;;;;;;;5053243;28;20396;-69
2021/05/24 14:14:24;;;;;;;0.80;0.70;;;;;;;;;;5052273;28;20869;-69
2021/05/24 14:16:50;;;;;;;0.80;0.60;;;;;;;;;;5035184;28;20480;-69
2021/05/24 14:19:16;;;;;;;1.77;1.67;;;;;;;;;;5052372;28;20408;-70
2021/05/24 14:21:42;;;;;;;0.73;0.47;;;;;;;;;;5053700;28;20406;-70
2021/05/24 14:24:08;;;;;;;0.90;0.70;;;;;;;;;;5053316;28;20447;-69
2021/05/24 14:26:34;;;;;;;1.13;0.50;;;;;;;;;;5035388;28;20414;-69
2021/05/24 14:29:00;;;;;;;1.67;0.57;;;;;;;;;;5044872;28;20461;-70
2021/05/24 14:31:26;;;;;;;0.70;0.50;;;;;;;;;;5035610;28;20822;-69
2021/05/24 14:33:52;;;;;;;0.80;0.40;;;;;;;;;;5046851;28;20180;-69
2021/05/24 14:36:18;;;;;;;1.10;0.60;;;;;;;;;;5053086;28;20402;-69
2021/05/24 14:38:45;;;;;;;0.70;0.47;;;;;;;;;;5053545;28;20909;-69
2021/05/24 14:41:11;;;;;;;0.80;0.50;;;;;;;;;;5052938;28;20419;-69
2021/05/24 14:43:37;;;;;;;0.80;0.50;;;;;;;;;;5053208;28;20809;-70
2021/05/24 14:46:03;;;;;;;0.70;0.47;;;;;;;;;;5053738;28;20395;-69
2021/05/24 14:50:58;;;;;;;0.70;0.50;;;;;;;;;;5010847;28;20541;-73
2021/05/24 14:53:26;;;;;;;1.00;0.80;;;;;;;;;;5005357;28;20763;-73
2021/05/24 14:55:52;;;;;;;5.13;0.87;;;;;;;;;;4996755;28;20447;-73
2021/05/24 14:58:18;;;;;;;0.70;0.43;;;;;;;;;;5003171;28;20898;-73